METAR Data
IDs: Format: Raw Decoded Include TAF

Data at: 0144 UTC 19 Oct 2021

KCCA 190135Z AUTO 00000KT 8SM CLR 11/09 A3012 RMK AO2
KCCA 190115Z AUTO 00000KT 9SM CLR 11/09 A3012 RMK AO2
KCCA 190055Z AUTO 00000KT 9SM CLR 12/09 A3011 RMK AO2
KCCA 190035Z AUTO 00000KT 9SM CLR 12/10 A3011 RMK AO2
KCCA 190015Z AUTO 00000KT 9SM CLR 14/10 A3010 RMK AO2
KCCA 182355Z AUTO 00000KT 9SM CLR 15/10 A3010 RMK AO2
KCCA 182335Z AUTO 00000KT 9SM CLR 16/10 A3010 RMK AO2
KCCA 182315Z AUTO 15003KT 9SM CLR 19/08 A3010 RMK AO2
KCCA 182255Z AUTO VRB05KT 10SM CLR 20/08 A3010 RMK AO2
KCCA 182235Z AUTO 19004KT 10SM CLR 21/07 A3010 RMK AO2
KCCA 182215Z AUTO VRB03KT 9SM CLR 22/07 A3010 RMK AO2
KCCA 182155Z AUTO 15005KT 9SM CLR 22/07 A3011 RMK AO2
KCCA 182135Z AUTO 14005KT 9SM CLR 22/07 A3012 RMK AO2
KCCA 182115Z AUTO VRB03KT 8SM CLR 22/06 A3012 RMK AO2
KCCA 182055Z AUTO 00000KT 8SM CLR 22/06 A3013 RMK AO2
KCCA 182035Z AUTO 12005KT 8SM CLR 22/06 A3013 RMK AO2
KCCA 182015Z AUTO 15006KT 8SM CLR 22/06 A3014 RMK AO2
KCCA 181955Z AUTO 19007KT 5SM HZ CLR 22/06 A3014 RMK AO2
KCCA 181935Z AUTO VRB04KT 9SM CLR 22/06 A3014 RMK AO2
KCCA 181915Z AUTO VRB05G10KT 9SM CLR 22/06 A3016 RMK AO2
KCCA 181855Z AUTO 19006KT 9SM CLR 22/06 A3017 RMK AO2
KCCA 181835Z AUTO 16004KT 6SM HZ CLR 22/06 A3018 RMK AO2
KCCA 181815Z AUTO 15007KT 7SM CLR 22/06 A3019 RMK AO2
KCCA 181755Z AUTO VRB06G11KT 10SM CLR 21/06 A3020 RMK AO2
KCCA 181735Z AUTO 14008KT 9SM CLR 21/07 A3021 RMK AO2
KCCA 181715Z AUTO 15007KT 9SM CLR 21/07 A3022 RMK AO2
KCCA 181655Z AUTO 00000KT 9SM CLR 20/09 A3023 RMK AO2
KCCA 181635Z AUTO VRB04KT 9SM CLR 19/09 A3023 RMK AO2
KCCA 181615Z AUTO 00000KT 10SM CLR 17/09 A3024 RMK AO2
KCCA 181555Z AUTO 00000KT 9SM CLR 16/09 A3025 RMK AO2
KCCA 181535Z AUTO 00000KT 9SM CLR 14/10 A3025 RMK AO2
KCCA 181515Z AUTO 00000KT 9SM CLR 13/09 A3025 RMK AO2
KCCA 181455Z AUTO 00000KT 10SM CLR 11/09 A3026 RMK AO2
KCCA 181435Z AUTO 00000KT 9SM CLR 10/08 A3025 RMK AO2
KCCA 181415Z AUTO 00000KT 9SM CLR 08/08 A3025 RMK AO2
KCCA 181355Z AUTO 00000KT 8SM CLR 07/07 A3025 RMK AO2
KCCA 181335Z AUTO 00000KT 3SM BR CLR 06/06 A3024 RMK AO2
KCCA 181315Z AUTO 00000KT 1 3/4SM BR SCT002 05/05 A3024 RMK AO2
KCCA 181255Z AUTO 00000KT M1/4SM FG OVC002 04/04 A3023 RMK AO2
KCCA 181235Z AUTO 00000KT 3SM BR SCT002 04/04 A3023 RMK AO2
KCCA 181215Z AUTO 00000KT 3SM BR CLR 04/04 A3023 RMK AO2
KCCA 181155Z AUTO 00000KT 3SM BR FEW003 04/04 A3022 RMK AO2
KCCA 181135Z AUTO 00000KT 3SM BR SCT002 04/04 A3022 RMK AO2
KCCA 181115Z AUTO 00000KT 1 1/2SM BR OVC002 04/04 A3022 RMK AO2
KCCA 181055Z AUTO 00000KT 3SM BR SCT002 04/04 A3022 RMK AO2 P0002
KCCA 181035Z AUTO 00000KT 4SM BR FEW002 05/04 A3021 RMK AO2
KCCA 181015Z AUTO 00000KT 3SM BR SCT002 05/05 A3021 RMK AO2
KCCA 180955Z AUTO 00000KT 4SM BR BKN002 05/05 A3021 RMK AO2
KCCA 180935Z AUTO 00000KT 4SM BR OVC002 05/05 A3021 RMK AO2
KCCA 180915Z AUTO 00000KT 4SM BR BKN002 05/05 A3020 RMK AO2
KCCA 180855Z AUTO 00000KT 1SM BR OVC001 05/05 A3020 RMK AO2
KCCA 180835Z AUTO 00000KT 4SM BR FEW002 06/05 A3021 RMK AO2
KCCA 180815Z AUTO 00000KT 3SM BR CLR 06/05 A3021 RMK AO2
KCCA 180755Z AUTO 00000KT 4SM BR FEW002 06/06 A3021 RMK AO2 P0001
KCCA 180735Z AUTO 00000KT 4SM BR FEW002 06/06 A3022 RMK AO2
KCCA 180715Z AUTO 00000KT 5SM BR BKN002 06/06 A3022 RMK AO2
KCCA 180655Z AUTO 00000KT 4SM BR BKN002 07/06 A3022 RMK AO2
KCCA 180635Z AUTO 00000KT 2SM BR FEW002 07/06 A3022 RMK AO2
KCCA 180615Z AUTO 00000KT 2 1/2SM BR CLR 07/06 A3023 RMK AO2
KCCA 180555Z AUTO 00000KT 5SM BR CLR 07/07 A3023 RMK AO2
KCCA 180535Z AUTO 00000KT 6SM BR CLR 07/07 A3023 RMK AO2
KCCA 180515Z AUTO 00000KT 6SM BR CLR 08/07 A3023 RMK AO2
KCCA 180455Z AUTO 00000KT 7SM CLR 08/07 A3023 RMK AO2 P0001
KCCA 180435Z AUTO 00000KT 7SM CLR 08/07 A3023 RMK AO2
KCCA 180415Z AUTO 00000KT 7SM CLR 08/08 A3023 RMK AO2
KCCA 180355Z AUTO 00000KT 8SM CLR 08/08 A3024 RMK AO2
KCCA 180335Z AUTO 00000KT 9SM CLR 09/08 A3024 RMK AO2
KCCA 180315Z AUTO 00000KT 9SM CLR 09/08 A3024 RMK AO2
KCCA 180255Z AUTO 00000KT 9SM CLR 09/09 A3023 RMK AO2
KCCA 180235Z AUTO 00000KT 9SM CLR 10/09 A3023 RMK AO2
KCCA 180215Z AUTO 00000KT 9SM CLR 10/09 A3023 RMK AO2
KCCA 180155Z AUTO 00000KT 10SM CLR 10/09 A3022 RMK AO2 P0001
KCCA 180135Z AUTO 00000KT 9SM CLR 11/09 A3022 RMK AO2
KCCA 180115Z AUTO 00000KT 10SM CLR 12/10 A3022 RMK AO2
KCCA 180055Z AUTO 00000KT 9SM CLR 12/10 A3022 RMK AO2
KCCA 180035Z AUTO 00000KT 9SM CLR 13/10 A3021 RMK AO2
KCCA 180015Z AUTO 00000KT 9SM CLR 14/10 A3021 RMK AO2
KCCA 172355Z AUTO 00000KT 8SM CLR 15/10 A3021 RMK AO2
KCCA 172335Z AUTO 00000KT 3SM HZ CLR 17/10 A3021 RMK AO2
KCCA 172315Z AUTO 00000KT 5SM HZ CLR 19/09 A3020 RMK AO2
KCCA 172255Z AUTO 00000KT 10SM CLR 21/07 A3020 RMK AO2
KCCA 172235Z AUTO 00000KT 9SM CLR 22/06 A3020 RMK AO2
KCCA 172215Z AUTO 4.52000005KT 10SM CLR 22/05 A3020 RMK AO2
KCCA 172155Z AUTO 25004KT 9SM CLR 23/05 A3020 RMK AO2
KCCA 172135Z AUTO VRB04KT 9SM CLR 23/05 A3020 RMK AO2
KCCA 172115Z AUTO 00000KT 9SM CLR 23/04 A3021 RMK AO2
KCCA 172055Z AUTO 20005KT 9SM CLR 23/04 A3021 RMK AO2
KCCA 172035Z AUTO 00000KT 8SM CLR 23/02 A3022 RMK AO2
KCCA 172015Z AUTO VRB04KT 5SM HZ CLR 24/04 A3022 RMK AO2
KCCA 171955Z AUTO 00000KT 9SM CLR 23/03 A3023 RMK AO2
KCCA 171935Z AUTO VRB05KT 10SM CLR 23/03 A3024 RMK AO2
KCCA 171915Z AUTO VRB03KT 9SM CLR 22/04 A3025 RMK AO2
KCCA 171855Z AUTO 00000KT 8SM CLR 22/03 A3026 RMK AO2
KCCA 171835Z AUTO 10003KT 10SM CLR 22/03 A3027 RMK AO2
KCCA 171815Z AUTO 00000KT 9SM CLR 22/04 A3028 RMK AO2
KCCA 171755Z AUTO 13003KT 10SM CLR 21/04 A3029 RMK AO2
KCCA 171735Z AUTO 20003KT 9SM CLR 21/03 A3030 RMK AO2
KCCA 171715Z AUTO 16004KT 9SM CLR 21/04 A3031 RMK AO2
KCCA 171655Z AUTO 00000KT 9SM CLR 20/04 A3032 RMK AO2
KCCA 171635Z AUTO 18004KT 9SM CLR 19/06 A3032 RMK AO2
KCCA 171615Z AUTO 00000KT 9SM CLR 17/07 A3033 RMK AO2
KCCA 171555Z AUTO 00000KT 9SM CLR 16/09 A3033 RMK AO2
KCCA 171535Z AUTO 00000KT 10SM CLR 14/08 A3034 RMK AO2
KCCA 171515Z AUTO 00000KT 10SM CLR 12/07 A3034 RMK AO2
KCCA 171455Z AUTO 00000KT 10SM CLR 10/08 A3034 RMK AO2
KCCA 171435Z AUTO 00000KT 9SM CLR 09/07 A3034 RMK AO2
KCCA 171415Z AUTO 00000KT 9SM CLR 07/06 A3034 RMK AO2
KCCA 171355Z AUTO 00000KT 7SM CLR 06/06 A3034 RMK AO2